Time;durP1;ratioP1;P1;durP2;ratioP2;P2;SDS_P1;SDS_P2;PMS_P1;PMS_P2;Temp;Humidity;BMP_temperature;BMP_pressure;BME280_temperature;BME280_humidity;BME280_pressure;Samples;Min_cycle;Max_cycle;Signal;HPM_P1;HPM_P2
2023/05/27 00:01:54;;;;;;;18.70;6.78;;;;;;;;;;6310525;28;20089;-60
2023/05/27 00:04:55;;;;;;;18.40;6.70;;;;;;;;;;6307889;28;20055;-59
2023/05/27 00:07:56;;;;;;;22.83;7.47;;;;;;;;;;6316643;28;20056;-60
2023/05/27 00:10:57;;;;;;;25.17;7.47;;;;;;;;;;6313902;28;20048;-60
2023/05/27 00:13:57;;;;;;;23.30;6.82;;;;;;;;;;6303900;28;20155;-59
2023/05/27 00:17:01;;;;;;;22.63;7.25;;;;;;;;;;6309332;28;20044;-60
2023/05/27 00:20:07;;;;;;;19.40;7.38;;;;;;;;;;6307008;28;20040;-60
2023/05/27 00:23:07;;;;;;;26.60;7.28;;;;;;;;;;6310810;28;20048;-61
2023/05/27 00:26:08;;;;;;;21.15;6.78;;;;;;;;;;6306574;28;20062;-59
2023/05/27 00:29:09;;;;;;;19.55;7.47;;;;;;;;;;6306925;28;20781;-58
2023/05/27 00:32:10;;;;;;;21.02;7.38;;;;;;;;;;6315371;28;20082;-57
2023/05/27 00:35:10;;;;;;;20.83;7.07;;;;;;;;;;6312347;28;20055;-57
2023/05/27 00:38:11;;;;;;;19.15;7.70;;;;;;;;;;6309314;28;20040;-59
2023/05/27 00:41:12;;;;;;;18.20;6.80;;;;;;;;;;6296287;28;20706;-61
2023/05/27 00:44:13;;;;;;;22.67;7.03;;;;;;;;;;6296604;28;20499;-61
2023/05/27 00:47:15;;;;;;;24.42;7.85;;;;;;;;;;6304785;28;20118;-61
2023/05/27 00:50:18;;;;;;;23.70;8.13;;;;;;;;;;6289286;28;20503;-60
2023/05/27 00:53:19;;;;;;;26.45;7.10;;;;;;;;;;6309603;28;20044;-62
2023/05/27 00:56:21;;;;;;;21.30;7.97;;;;;;;;;;6303698;28;20052;-60
2023/05/27 00:59:22;;;;;;;21.17;7.15;;;;;;;;;;6300574;28;20055;-61
2023/05/27 01:02:23;;;;;;;24.00;6.75;;;;;;;;;;6301068;28;20071;-61
2023/05/27 01:05:24;;;;;;;23.70;7.18;;;;;;;;;;6307886;28;20119;-61
2023/05/27 01:08:34;;;;;;;22.88;7.30;;;;;;;;;;6304996;28;20044;-62
2023/05/27 01:11:43;;;;;;;23.33;7.22;;;;;;;;;;6302500;28;20189;-62
2023/05/27 01:14:45;;;;;;;27.25;7.68;;;;;;;;;;6303877;28;20385;-58
2023/05/27 01:17:47;;;;;;;22.73;7.32;;;;;;;;;;6286999;28;20064;-60
2023/05/27 01:20:51;;;;;;;21.95;7.82;;;;;;;;;;6307266;28;20044;-59
2023/05/27 01:23:52;;;;;;;24.20;7.47;;;;;;;;;;6306891;28;20071;-61
2023/05/27 01:26:53;;;;;;;18.80;7.22;;;;;;;;;;6305962;28;20099;-61
2023/05/27 01:29:56;;;;;;;23.63;7.80;;;;;;;;;;6307549;28;20041;-61
2023/05/27 01:33:05;;;;;;;28.00;7.57;;;;;;;;;;6306908;28;20056;-61
2023/05/27 01:36:13;;;;;;;23.33;7.45;;;;;;;;;;6303633;28;20147;-61
2023/05/27 01:39:15;;;;;;;25.42;7.05;;;;;;;;;;6306422;28;20054;-62
2023/05/27 01:42:15;;;;;;;25.65;7.80;;;;;;;;;;6306747;28;20056;-59
2023/05/27 01:45:16;;;;;;;19.08;6.72;;;;;;;;;;6306239;28;20135;-61
2023/05/27 01:48:19;;;;;;;28.92;7.85;;;;;;;;;;6306887;28;20049;-61
2023/05/27 01:51:19;;;;;;;25.08;7.45;;;;;;;;;;6304050;28;20044;-62
2023/05/27 01:54:20;;;;;;;27.60;8.00;;;;;;;;;;6303552;28;20040;-62
2023/05/27 01:57:21;;;;;;;32.30;8.00;;;;;;;;;;6312640;28;20048;-61
2023/05/27 02:00:22;;;;;;;21.83;7.00;;;;;;;;;;6306718;28;20043;-61
2023/05/27 02:03:22;;;;;;;22.40;7.37;;;;;;;;;;6305407;28;20531;-61
2023/05/27 02:06:23;;;;;;;23.13;7.72;;;;;;;;;;6304760;28;20044;-61
2023/05/27 02:09:24;;;;;;;26.33;7.88;;;;;;;;;;6306209;28;20040;-62
2023/05/27 02:12:24;;;;;;;20.83;7.55;;;;;;;;;;6305988;28;20544;-61
2023/05/27 02:15:26;;;;;;;23.38;7.25;;;;;;;;;;6307396;28;20459;-61
2023/05/27 02:18:27;;;;;;;29.40;8.20;;;;;;;;;;6303810;28;20495;-61
2023/05/27 02:21:28;;;;;;;21.40;7.22;;;;;;;;;;6308619;28;20040;-61
2023/05/27 02:24:28;;;;;;;25.42;8.50;;;;;;;;;;6306603;28;20070;-61
2023/05/27 02:27:29;;;;;;;21.55;8.48;;;;;;;;;;6305597;28;20061;-61
2023/05/27 02:30:31;;;;;;;23.02;7.15;;;;;;;;;;6306342;28;20051;-61
2023/05/27 02:33:31;;;;;;;23.85;6.97;;;;;;;;;;6308627;28;20047;-61
2023/05/27 02:36:32;;;;;;;24.77;7.63;;;;;;;;;;6310025;28;20048;-59
2023/05/27 02:39:32;;;;;;;33.42;9.05;;;;;;;;;;6311531;28;20135;-61
2023/05/27 02:42:33;;;;;;;23.85;7.60;;;;;;;;;;6312873;28;20411;-61
2023/05/27 02:45:34;;;;;;;24.17;7.68;;;;;;;;;;6310129;28;20075;-60
2023/05/27 02:48:34;;;;;;;23.83;7.93;;;;;;;;;;6309301;28;20052;-60
2023/05/27 02:51:36;;;;;;;28.08;7.93;;;;;;;;;;6312669;28;20508;-60
2023/05/27 02:54:36;;;;;;;21.63;7.70;;;;;;;;;;6310996;28;20040;-60
2023/05/27 02:57:37;;;;;;;23.13;7.68;;;;;;;;;;6310613;28;20518;-60
2023/05/27 03:00:37;;;;;;;25.55;8.35;;;;;;;;;;6311590;28;20085;-59
2023/05/27 03:03:38;;;;;;;24.42;7.78;;;;;;;;;;6289729;28;20788;-61
2023/05/27 03:06:38;;;;;;;19.58;7.10;;;;;;;;;;6304828;28;20044;-59
2023/05/27 03:09:39;;;;;;;22.05;7.88;;;;;;;;;;6308834;28;20055;-59
2023/05/27 03:12:40;;;;;;;23.63;7.43;;;;;;;;;;6311006;28;20063;-59
2023/05/27 03:15:40;;;;;;;21.20;7.47;;;;;;;;;;6308264;28;20181;-60
2023/05/27 03:18:41;;;;;;;22.65;8.45;;;;;;;;;;6308406;28;20379;-60
2023/05/27 03:21:41;;;;;;;24.15;7.78;;;;;;;;;;6311838;28;20630;-57
2023/05/27 03:24:42;;;;;;;20.15;7.13;;;;;;;;;;6310747;28;20048;-61
2023/05/27 03:27:43;;;;;;;18.93;6.97;;;;;;;;;;6314888;28;20054;-60
2023/05/27 03:30:44;;;;;;;24.10;6.93;;;;;;;;;;6312219;28;20884;-60
2023/05/27 03:33:44;;;;;;;22.58;6.82;;;;;;;;;;6311027;28;20044;-59
2023/05/27 03:36:46;;;;;;;20.98;7.20;;;;;;;;;;6308628;28;20480;-60
2023/05/27 03:39:46;;;;;;;21.90;7.37;;;;;;;;;;6309006;28;20160;-60
2023/05/27 03:42:47;;;;;;;17.90;6.80;;;;;;;;;;6308829;28;20620;-60
2023/05/27 03:45:47;;;;;;;21.80;6.90;;;;;;;;;;6310032;28;20047;-59
2023/05/27 03:48:48;;;;;;;18.02;7.35;;;;;;;;;;6311134;28;20051;-59
2023/05/27 03:51:49;;;;;;;18.25;7.30;;;;;;;;;;6310044;28;20515;-59
2023/05/27 03:54:49;;;;;;;23.15;7.40;;;;;;;;;;6310827;28;20051;-61
2023/05/27 03:57:50;;;;;;;16.23;6.15;;;;;;;;;;6308839;28;20426;-59
2023/05/27 04:00:51;;;;;;;24.50;7.28;;;;;;;;;;6308743;28;20048;-59
2023/05/27 04:03:52;;;;;;;20.83;6.50;;;;;;;;;;6310374;28;20831;-61
2023/05/27 04:06:55;;;;;;;24.42;7.25;;;;;;;;;;6310065;28;20048;-60
2023/05/27 04:09:56;;;;;;;19.85;6.90;;;;;;;;;;6309268;28;20480;-60
2023/05/27 04:12:56;;;;;;;20.60;6.97;;;;;;;;;;6307386;28;20125;-59
2023/05/27 04:15:57;;;;;;;19.85;6.85;;;;;;;;;;6309738;28;20048;-60
2023/05/27 04:18:58;;;;;;;22.27;6.85;;;;;;;;;;6308011;28;20040;-60
2023/05/27 04:21:58;;;;;;;14.75;5.57;;;;;;;;;;6307619;28;20046;-60
2023/05/27 04:25:01;;;;;;;14.00;6.07;;;;;;;;;;6308558;28;20472;-60
2023/05/27 04:28:06;;;;;;;21.42;6.25;;;;;;;;;;6306977;28;20143;-60
2023/05/27 04:31:12;;;;;;;22.73;7.15;;;;;;;;;;6308038;28;20042;-61
2023/05/27 04:34:13;;;;;;;19.65;6.70;;;;;;;;;;6309112;28;20047;-61
2023/05/27 04:37:13;;;;;;;26.33;7.03;;;;;;;;;;6311119;28;20044;-60
2023/05/27 04:40:14;;;;;;;20.23;6.57;;;;;;;;;;6306809;28;20040;-61
2023/05/27 04:43:15;;;;;;;21.38;6.57;;;;;;;;;;6309387;28;20048;-60
2023/05/27 04:46:16;;;;;;;19.55;6.70;;;;;;;;;;6309469;28;20048;-60
2023/05/27 04:49:17;;;;;;;23.25;7.40;;;;;;;;;;6307862;28;20044;-60
2023/05/27 04:52:21;;;;;;;18.23;6.68;;;;;;;;;;6308642;28;20537;-61
2023/05/27 04:55:22;;;;;;;21.08;7.07;;;;;;;;;;6304038;28;20888;-59
2023/05/27 04:58:23;;;;;;;22.65;7.40;;;;;;;;;;6306535;28;20124;-61
2023/05/27 05:01:25;;;;;;;21.35;7.22;;;;;;;;;;6313536;28;20363;-59
2023/05/27 05:04:25;;;;;;;18.17;7.18;;;;;;;;;;6314902;28;20063;-62
2023/05/27 05:07:26;;;;;;;23.35;7.13;;;;;;;;;;6306622;28;20040;-60
2023/05/27 05:10:28;;;;;;;20.83;7.03;;;;;;;;;;6309624;28;20047;-60
2023/05/27 05:13:29;;;;;;;;;;;;;;;;;;6309173;28;20047;-59
2023/05/27 05:16:30;;;;;;;19.75;6.20;;;;;;;;;;6308053;28;19924;-60
2023/05/27 05:19:30;;;;;;;21.88;6.40;;;;;;;;;;6308497;28;20062;-61
2023/05/27 05:22:31;;;;;;;23.88;7.35;;;;;;;;;;6308803;28;20679;-61
2023/05/27 05:25:35;;;;;;;19.00;7.18;;;;;;;;;;6308671;28;20058;-61
2023/05/27 05:28:35;;;;;;;21.55;6.78;;;;;;;;;;6307262;28;20093;-61
2023/05/27 05:31:36;;;;;;;18.65;6.88;;;;;;;;;;6309530;28;20599;-61
2023/05/27 05:34:37;;;;;;;21.23;6.30;;;;;;;;;;6306100;28;20083;-59
2023/05/27 05:37:38;;;;;;;20.23;6.30;;;;;;;;;;6306744;28;20051;-61
2023/05/27 05:40:39;;;;;;;29.33;7.28;;;;;;;;;;6306939;28;20072;-60
2023/05/27 05:43:39;;;;;;;22.98;6.50;;;;;;;;;;6311031;28;20414;-59
2023/05/27 05:46:40;;;;;;;19.92;6.35;;;;;;;;;;6304583;28;20101;-61
2023/05/27 05:49:41;;;;;;;21.30;5.82;;;;;;;;;;6307430;28;20040;-62
2023/05/27 05:52:41;;;;;;;17.05;5.93;;;;;;;;;;6308706;28;20043;-59
2023/05/27 05:55:42;;;;;;;18.52;6.57;;;;;;;;;;6307431;28;20048;-61
2023/05/27 05:58:42;;;;;;;19.30;5.63;;;;;;;;;;6289647;28;20067;-61
2023/05/27 06:01:43;;;;;;;20.92;5.47;;;;;;;;;;6304295;28;20063;-60
2023/05/27 06:04:44;;;;;;;23.77;5.68;;;;;;;;;;6305830;28;20458;-59
2023/05/27 06:07:45;;;;;;;21.65;6.53;;;;;;;;;;6306057;28;20052;-61
2023/05/27 06:10:46;;;;;;;18.00;6.20;;;;;;;;;;6305826;28;20043;-61
2023/05/27 06:13:47;;;;;;;21.02;5.57;;;;;;;;;;6308090;28;20078;-61
2023/05/27 06:16:48;;;;;;;17.00;5.07;;;;;;;;;;6302898;28;20050;-62
2023/05/27 06:19:49;;;;;;;19.50;5.40;;;;;;;;;;6306486;28;20036;-62
2023/05/27 06:22:49;;;;;;;17.80;4.88;;;;;;;;;;6306982;28;20213;-61
2023/05/27 06:25:50;;;;;;;18.95;5.45;;;;;;;;;;6308125;28;20105;-61
2023/05/27 06:28:51;;;;;;;19.90;5.50;;;;;;;;;;6306664;28;20456;-62
2023/05/27 06:31:51;;;;;;;20.88;5.55;;;;;;;;;;6305588;28;20056;-62
2023/05/27 06:34:52;;;;;;;22.50;5.80;;;;;;;;;;6305522;28;20722;-62
2023/05/27 06:37:52;;;;;;;19.30;5.63;;;;;;;;;;6306064;28;20048;-62
2023/05/27 06:40:53;;;;;;;21.90;6.13;;;;;;;;;;6306187;28;20074;-60
2023/05/27 06:43:53;;;;;;;18.17;6.35;;;;;;;;;;6307200;28;20055;-62
2023/05/27 06:46:54;;;;;;;23.15;6.32;;;;;;;;;;6305719;28;20063;-61
2023/05/27 06:49:55;;;;;;;19.90;5.90;;;;;;;;;;6306535;28;20044;-59
2023/05/27 06:52:55;;;;;;;21.05;6.40;;;;;;;;;;6307788;28;20046;-61
2023/05/27 06:55:56;;;;;;;19.85;6.05;;;;;;;;;;6306909;28;20617;-62
2023/05/27 06:58:57;;;;;;;21.45;6.20;;;;;;;;;;6307250;28;20505;-62
2023/05/27 07:01:58;;;;;;;22.88;6.90;;;;;;;;;;6306119;28;20055;-63
2023/05/27 07:04:59;;;;;;;22.90;6.75;;;;;;;;;;6306504;28;20125;-62
2023/05/27 07:08:00;;;;;;;25.63;6.78;;;;;;;;;;6308134;28;20556;-62
2023/05/27 07:11:00;;;;;;;21.13;6.20;;;;;;;;;;6304026;28;20147;-62
2023/05/27 07:14:01;;;;;;;23.77;7.80;;;;;;;;;;6306375;28;20048;-60
2023/05/27 07:17:02;;;;;;;30.10;7.45;;;;;;;;;;6302641;28;20040;-59
2023/05/27 07:20:02;;;;;;;20.10;6.70;;;;;;;;;;6308628;28;20041;-60
2023/05/27 07:23:03;;;;;;;24.40;7.18;;;;;;;;;;6309798;28;20044;-60
2023/05/27 07:26:04;;;;;;;20.58;7.00;;;;;;;;;;6309006;28;20052;-60
2023/05/27 07:29:05;;;;;;;21.02;6.75;;;;;;;;;;6309661;28;20040;-59
2023/05/27 07:32:06;;;;;;;21.38;6.18;;;;;;;;;;6309407;28;20493;-56
2023/05/27 07:35:07;;;;;;;19.35;6.85;;;;;;;;;;6307673;28;20044;-62
2023/05/27 07:38:08;;;;;;;20.77;6.63;;;;;;;;;;6310510;28;20051;-62
2023/05/27 07:41:09;;;;;;;29.73;6.30;;;;;;;;;;6310851;28;20049;-56
2023/05/27 07:44:10;;;;;;;20.63;6.67;;;;;;;;;;6312571;28;20097;-61
2023/05/27 07:47:10;;;;;;;28.42;6.35;;;;;;;;;;6312104;28;20958;-59
2023/05/27 07:50:11;;;;;;;14.10;5.13;;;;;;;;;;6309648;28;20052;-62
2023/05/27 07:53:12;;;;;;;15.32;4.47;;;;;;;;;;6310660;28;20351;-59
2023/05/27 07:56:13;;;;;;;15.65;4.63;;;;;;;;;;6310312;28;20047;-63
2023/05/27 07:59:13;;;;;;;25.02;5.65;;;;;;;;;;6310298;28;20040;-60
2023/05/27 08:02:14;;;;;;;16.90;5.25;;;;;;;;;;6311897;28;20052;-53
2023/05/27 08:05:15;;;;;;;17.60;5.38;;;;;;;;;;6310386;28;20052;-54
2023/05/27 08:08:15;;;;;;;16.10;4.30;;;;;;;;;;6302228;28;20045;-58
2023/05/27 08:11:16;;;;;;;17.00;4.80;;;;;;;;;;6312310;28;20117;-55
2023/05/27 08:14:16;;;;;;;16.92;4.72;;;;;;;;;;6318358;28;20213;-63
2023/05/27 08:17:17;;;;;;;14.18;4.55;;;;;;;;;;6317933;28;20044;-55
2023/05/27 08:20:17;;;;;;;17.38;4.72;;;;;;;;;;6317874;28;20056;-60
2023/05/27 08:23:18;;;;;;;14.93;4.13;;;;;;;;;;6318070;28;20052;-55
2023/05/27 08:26:19;;;;;;;19.58;5.13;;;;;;;;;;6318017;28;20051;-49
2023/05/27 08:29:19;;;;;;;15.70;5.03;;;;;;;;;;6317478;28;20044;-46
2023/05/27 08:32:20;;;;;;;17.65;4.40;;;;;;;;;;6317389;28;20044;-50
2023/05/27 08:35:20;;;;;;;17.30;4.43;;;;;;;;;;6318279;28;20490;-56
2023/05/27 08:38:21;;;;;;;13.77;4.10;;;;;;;;;;6316907;28;20040;-50
2023/05/27 08:41:22;;;;;;;20.05;4.88;;;;;;;;;;6318021;28;20421;-51
2023/05/27 08:44:23;;;;;;;18.30;4.95;;;;;;;;;;6318213;28;20044;-47
2023/05/27 08:47:28;;;;;;;18.98;5.28;;;;;;;;;;6309471;28;20059;-56
2023/05/27 08:50:28;;;;;;;16.08;4.75;;;;;;;;;;6303651;28;20130;-51
2023/05/27 08:53:31;;;;;;;20.20;4.47;;;;;;;;;;6317304;28;20052;-49
2023/05/27 08:56:32;;;;;;;14.82;4.85;;;;;;;;;;6317605;28;20050;-49
2023/05/27 08:59:34;;;;;;;18.23;4.72;;;;;;;;;;6314790;28;20048;-48
2023/05/27 09:02:35;;;;;;;13.48;4.13;;;;;;;;;;6315764;28;20048;-48
2023/05/27 09:05:36;;;;;;;15.57;4.63;;;;;;;;;;6317471;28;20052;-51
2023/05/27 09:08:37;;;;;;;16.83;5.03;;;;;;;;;;6316343;28;20056;-52
2023/05/27 09:11:42;;;;;;;20.13;5.15;;;;;;;;;;6317140;28;20101;-49
2023/05/27 09:14:43;;;;;;;13.23;4.93;;;;;;;;;;6316792;28;20079;-48
2023/05/27 09:17:46;;;;;;;14.15;4.43;;;;;;;;;;6312219;28;20112;-50
2023/05/27 09:20:46;;;;;;;18.00;5.00;;;;;;;;;;6307217;28;20555;-49
2023/05/27 09:23:47;;;;;;;13.52;4.95;;;;;;;;;;6316999;28;20083;-49
2023/05/27 09:26:50;;;;;;;13.18;4.13;;;;;;;;;;6310396;28;20041;-57
2023/05/27 09:29:51;;;;;;;17.02;4.70;;;;;;;;;;6308739;28;20109;-50
2023/05/27 09:33:00;;;;;;;12.40;4.28;;;;;;;;;;6306537;28;20052;-56
2023/05/27 09:36:03;;;;;;;17.73;4.55;;;;;;;;;;6305364;28;20117;-51
2023/05/27 09:39:04;;;;;;;12.43;4.63;;;;;;;;;;6310568;28;20058;-50
2023/05/27 09:42:05;;;;;;;14.30;4.90;;;;;;;;;;6305636;28;20054;-50
2023/05/27 09:45:09;;;;;;;18.08;4.88;;;;;;;;;;6305770;28;20496;-48
2023/05/27 09:48:13;;;;;;;14.10;4.47;;;;;;;;;;6316229;28;20052;-49
2023/05/27 09:51:14;;;;;;;12.70;4.60;;;;;;;;;;6297969;28;20098;-50
2023/05/27 09:54:19;;;;;;;12.73;3.90;;;;;;;;;;6315292;28;20048;-49
2023/05/27 09:57:20;;;;;;;14.40;4.13;;;;;;;;;;6316037;28;20055;-51
2023/05/27 10:00:23;;;;;;;12.98;3.97;;;;;;;;;;6307508;28;20055;-50
2023/05/27 10:03:24;;;;;;;15.18;4.13;;;;;;;;;;6311118;28;20479;-48
2023/05/27 10:06:29;;;;;;;12.07;4.70;;;;;;;;;;6304899;28;20050;-51
2023/05/27 10:09:29;;;;;;;12.18;3.97;;;;;;;;;;6303106;28;20055;-50
2023/05/27 10:12:30;;;;;;;16.20;4.35;;;;;;;;;;6311937;28;20036;-52
2023/05/27 10:15:32;;;;;;;16.23;4.40;;;;;;;;;;6311237;28;20044;-53
2023/05/27 10:18:33;;;;;;;18.00;4.55;;;;;;;;;;6314177;28;20046;-50
2023/05/27 10:21:42;;;;;;;13.25;3.78;;;;;;;;;;6313210;28;20078;-49
2023/05/27 10:24:48;;;;;;;13.38;4.05;;;;;;;;;;6304885;28;20043;-52
2023/05/27 10:27:48;;;;;;;11.20;3.47;;;;;;;;;;6311941;28;21031;-54
2023/05/27 10:30:49;;;;;;;11.48;4.43;;;;;;;;;;6306339;28;20052;-48
2023/05/27 10:33:53;;;;;;;19.63;4.30;;;;;;;;;;6313626;28;20048;-51
2023/05/27 10:37:02;;;;;;;16.30;4.60;;;;;;;;;;6315177;28;20050;-53
2023/05/27 10:40:06;;;;;;;12.93;4.80;;;;;;;;;;6310324;28;20059;-50
2023/05/27 10:43:15;;;;;;;13.45;4.72;;;;;;;;;;6300366;28;20395;-54
2023/05/27 10:46:16;;;;;;;16.42;4.20;;;;;;;;;;6309575;28;20091;-50
2023/05/27 10:49:25;;;;;;;13.65;5.03;;;;;;;;;;6302212;28;20527;-50
2023/05/27 10:52:31;;;;;;;11.45;4.35;;;;;;;;;;6299830;28;20048;-49
2023/05/27 10:55:32;;;;;;;10.70;3.88;;;;;;;;;;6307790;28;20051;-50
2023/05/27 10:58:35;;;;;;;16.95;4.70;;;;;;;;;;6311357;28;20075;-55
2023/05/27 11:01:36;;;;;;;11.60;4.13;;;;;;;;;;6316095;28;20406;-50
2023/05/27 11:04:37;;;;;;;10.80;3.92;;;;;;;;;;6316849;28;20044;-49
2023/05/27 11:07:39;;;;;;;12.63;4.37;;;;;;;;;;6307750;28;20488;-50
2023/05/27 11:10:41;;;;;;;10.98;4.10;;;;;;;;;;6310026;28;20527;-56
2023/05/27 11:13:44;;;;;;;12.18;4.38;;;;;;;;;;6312691;28;20487;-51
2023/05/27 11:16:51;;;;;;;14.52;4.10;;;;;;;;;;6304907;28;20507;-52
2023/05/27 11:19:53;;;;;;;9.20;4.22;;;;;;;;;;6303895;28;20043;-49
2023/05/27 11:22:53;;;;;;;16.00;4.47;;;;;;;;;;6312998;28;20052;-49
2023/05/27 11:25:54;;;;;;;18.23;5.38;;;;;;;;;;6307005;28;20071;-57
2023/05/27 11:28:58;;;;;;;10.10;4.67;;;;;;;;;;6309619;28;20036;-52
2023/05/27 11:31:59;;;;;;;12.88;4.45;;;;;;;;;;6316731;28;20052;-51
2023/05/27 11:34:59;;;;;;;14.02;4.93;;;;;;;;;;6313259;28;20079;-52
2023/05/27 11:38:02;;;;;;;12.48;4.50;;;;;;;;;;6293502;28;20048;-54
2023/05/27 11:41:08;;;;;;;;;;;;;;;;;;6289394;28;20049;-47
2023/05/27 11:44:09;;;;;;;11.05;4.00;;;;;;;;;;6288689;28;20015;-52
2023/05/27 11:47:09;;;;;;;17.55;4.63;;;;;;;;;;6285192;28;20056;-46
2023/05/27 11:50:10;;;;;;;11.57;5.17;;;;;;;;;;6285488;28;20059;-50
2023/05/27 11:53:15;;;;;;;10.60;4.20;;;;;;;;;;6276205;28;20633;-51
2023/05/27 11:56:16;;;;;;;9.55;3.90;;;;;;;;;;6286379;28;20146;-49
2023/05/27 11:59:17;;;;;;;11.90;4.10;;;;;;;;;;6288087;28;20098;-48
2023/05/27 12:02:20;;;;;;;;;;;;;;;;;;6284258;28;20048;-57
2023/05/27 12:05:21;;;;;;;13.38;4.35;;;;;;;;;;6285102;28;19924;-51
2023/05/27 12:08:22;;;;;;;10.95;4.15;;;;;;;;;;6283232;28;20047;-52
2023/05/27 12:11:22;;;;;;;11.47;4.10;;;;;;;;;;6286044;28;20052;-49
2023/05/27 12:14:23;;;;;;;16.47;9.87;;;;;;;;;;6283218;28;20885;-50
2023/05/27 12:17:24;;;;;;;11.77;4.07;;;;;;;;;;6284003;28;20052;-48
2023/05/27 12:20:27;;;;;;;11.37;5.30;;;;;;;;;;6283821;28;20110;-51
2023/05/27 12:23:27;;;;;;;11.88;4.43;;;;;;;;;;6283741;28;20500;-50
2023/05/27 12:26:28;;;;;;;11.77;4.80;;;;;;;;;;6284423;28;20055;-51
2023/05/27 12:29:30;;;;;;;11.37;4.40;;;;;;;;;;6282372;28;20068;-50
2023/05/27 12:32:30;;;;;;;;;;;;;;;;;;6284937;28;20052;-50
2023/05/27 12:35:31;;;;;;;16.13;5.30;;;;;;;;;;6283692;28;20390;-51
2023/05/27 12:38:32;;;;;;;12.57;4.82;;;;;;;;;;6284742;28;20063;-49
2023/05/27 12:41:36;;;;;;;10.53;4.57;;;;;;;;;;6284293;28;20056;-49
2023/05/27 12:44:36;;;;;;;18.27;8.32;;;;;;;;;;6284480;28;20064;-50
2023/05/27 12:47:37;;;;;;;11.10;4.50;;;;;;;;;;6282443;28;20159;-52
2023/05/27 12:50:38;;;;;;;9.50;4.90;;;;;;;;;;6282627;28;20806;-50
2023/05/27 12:53:39;;;;;;;12.02;4.65;;;;;;;;;;6284628;28;20052;-51
2023/05/27 12:56:39;;;;;;;10.93;3.93;;;;;;;;;;6285121;28;20093;-49
2023/05/27 12:59:41;;;;;;;12.70;3.90;;;;;;;;;;6282557;28;20507;-51
2023/05/27 13:02:44;;;;;;;;;;;;;;;;;;6284001;28;20122;-49
2023/05/27 13:05:44;;;;;;;12.00;4.20;;;;;;;;;;6283999;28;19940;-50
2023/05/27 13:08:45;;;;;;;9.97;4.00;;;;;;;;;;6283270;28;20803;-50
2023/05/27 13:11:47;;;;;;;10.82;3.83;;;;;;;;;;6284320;28;20056;-50
2023/05/27 13:14:48;;;;;;;9.52;4.93;;;;;;;;;;6281770;28;20049;-49
2023/05/27 13:17:50;;;;;;;14.63;3.93;;;;;;;;;;6282266;28;20051;-50
2023/05/27 13:20:50;;;;;;;8.73;3.70;;;;;;;;;;6283451;28;20612;-50
2023/05/27 13:23:52;;;;;;;8.97;3.90;;;;;;;;;;6282659;28;20044;-51
2023/05/27 13:26:53;;;;;;;10.30;4.40;;;;;;;;;;6282271;28;20036;-50
2023/05/27 13:29:53;;;;;;;11.23;4.13;;;;;;;;;;6281038;28;20048;-51
2023/05/27 13:32:54;;;;;;;8.30;3.73;;;;;;;;;;6282623;28;20067;-56
2023/05/27 13:35:55;;;;;;;12.45;4.32;;;;;;;;;;6282397;28;20554;-49
2023/05/27 13:38:56;;;;;;;11.90;4.43;;;;;;;;;;6282484;28;20052;-51
2023/05/27 13:41:57;;;;;;;18.07;6.10;;;;;;;;;;6284173;28;20491;-50
2023/05/27 13:44:57;;;;;;;8.93;3.63;;;;;;;;;;6281387;28;20052;-53
2023/05/27 13:47:58;;;;;;;7.23;3.33;;;;;;;;;;6279961;28;20063;-53
2023/05/27 13:50:59;;;;;;;9.10;3.70;;;;;;;;;;6278443;28;21216;-49
2023/05/27 13:54:01;;;;;;;10.50;3.57;;;;;;;;;;6274396;28;20057;-63
2023/05/27 13:57:02;;;;;;;10.25;4.05;;;;;;;;;;6277582;28;21088;-51
2023/05/27 14:00:03;;;;;;;13.70;4.50;;;;;;;;;;6276044;28;20049;-49
2023/05/27 14:03:04;;;;;;;15.88;4.90;;;;;;;;;;6275841;28;20526;-51
2023/05/27 14:06:05;;;;;;;12.23;4.37;;;;;;;;;;6273990;28;20049;-49
2023/05/27 14:09:07;;;;;;;8.68;3.42;;;;;;;;;;6274392;28;20105;-52
2023/05/27 14:12:08;;;;;;;9.27;4.10;;;;;;;;;;6273548;28;20044;-49
2023/05/27 14:15:09;;;;;;;8.80;3.50;;;;;;;;;;6274023;28;20110;-54
2023/05/27 14:18:10;;;;;;;10.35;3.75;;;;;;;;;;6276696;28;20053;-51
2023/05/27 14:21:10;;;;;;;7.60;3.50;;;;;;;;;;6271584;28;20921;-50
2023/05/27 14:24:12;;;;;;;9.07;3.50;;;;;;;;;;6277155;28;20107;-52
2023/05/27 14:27:13;;;;;;;10.57;3.90;;;;;;;;;;6274252;28;20052;-55
2023/05/27 14:30:13;;;;;;;9.03;3.37;;;;;;;;;;6272016;28;20103;-53
2023/05/27 14:33:15;;;;;;;8.95;4.00;;;;;;;;;;6274103;28;20048;-49
2023/05/27 14:36:15;;;;;;;8.97;3.53;;;;;;;;;;6277790;28;20457;-53
2023/05/27 14:39:16;;;;;;;8.83;3.30;;;;;;;;;;6276349;28;20146;-57
2023/05/27 14:42:17;;;;;;;9.93;3.53;;;;;;;;;;6276942;28;20053;-51
2023/05/27 14:45:20;;;;;;;10.73;3.13;;;;;;;;;;6276668;28;20052;-58
2023/05/27 14:48:21;;;;;;;8.68;3.35;;;;;;;;;;6274038;28;20070;-57
2023/05/27 14:51:22;;;;;;;9.00;3.57;;;;;;;;;;6278631;28;20068;-57
2023/05/27 14:54:22;;;;;;;8.30;3.43;;;;;;;;;;6276830;28;20041;-52
2023/05/27 14:57:23;;;;;;;11.87;4.67;;;;;;;;;;6273925;28;20044;-49
2023/05/27 15:00:23;;;;;;;9.93;4.10;;;;;;;;;;6273133;28;20105;-50
2023/05/27 15:03:24;;;;;;;7.20;2.97;;;;;;;;;;6277050;28;20675;-54
2023/05/27 15:06:25;;;;;;;10.87;3.90;;;;;;;;;;6276793;28;20052;-52
2023/05/27 15:09:26;;;;;;;7.87;3.20;;;;;;;;;;6275482;28;20049;-50
2023/05/27 15:12:46;;;;;;;10.00;3.30;;;;;;;;;;6273450;28;20693;-58
2023/05/27 15:15:47;;;;;;;8.63;3.28;;;;;;;;;;6273122;28;20148;-50
2023/05/27 15:18:47;;;;;;;9.63;3.67;;;;;;;;;;6272558;28;20048;-51
2023/05/27 15:21:49;;;;;;;8.10;3.27;;;;;;;;;;6272794;28;20511;-52
2023/05/27 15:24:50;;;;;;;8.35;3.42;;;;;;;;;;6271698;28;20044;-54
2023/05/27 15:27:50;;;;;;;8.80;4.10;;;;;;;;;;6271766;28;20502;-58
2023/05/27 15:30:51;;;;;;;8.57;3.23;;;;;;;;;;6273548;28;20037;-55
2023/05/27 15:33:53;;;;;;;10.37;4.20;;;;;;;;;;6277390;28;20048;-50
2023/05/27 15:36:54;;;;;;;8.50;3.97;;;;;;;;;;6274827;28;20055;-54
2023/05/27 15:39:55;;;;;;;11.20;4.40;;;;;;;;;;6276786;28;20507;-55
2023/05/27 15:42:56;;;;;;;27.33;13.70;;;;;;;;;;6278457;28;20472;-53
2023/05/27 15:45:56;;;;;;;10.83;4.53;;;;;;;;;;6281709;28;20902;-53
2023/05/27 15:48:58;;;;;;;10.47;3.30;;;;;;;;;;6273536;28;20044;-56
2023/05/27 15:52:00;;;;;;;10.13;6.43;;;;;;;;;;6279171;28;20441;-57
2023/05/27 15:55:00;;;;;;;14.60;7.63;;;;;;;;;;6279216;28;20910;-54
2023/05/27 15:58:01;;;;;;;23.00;6.10;;;;;;;;;;6273111;28;20055;-49
2023/05/27 16:01:02;;;;;;;21.50;8.50;;;;;;;;;;6281528;28;20052;-50
2023/05/27 16:04:05;;;;;;;10.10;3.73;;;;;;;;;;6281686;28;20099;-51
2023/05/27 16:07:05;;;;;;;8.85;3.70;;;;;;;;;;6280088;28;20069;-50
2023/05/27 16:10:07;;;;;;;16.50;6.53;;;;;;;;;;6276855;28;20297;-50
2023/05/27 16:13:07;;;;;;;11.05;6.10;;;;;;;;;;6277475;28;21722;-50
2023/05/27 16:16:08;;;;;;;12.13;5.53;;;;;;;;;;6276472;28;20084;-56
2023/05/27 16:19:10;;;;;;;10.70;4.47;;;;;;;;;;6278068;28;20727;-50
2023/05/27 16:22:11;;;;;;;10.48;3.85;;;;;;;;;;6277866;28;20057;-58
2023/05/27 16:25:11;;;;;;;10.77;3.63;;;;;;;;;;6278408;28;20063;-51
2023/05/27 16:28:12;;;;;;;10.93;6.47;;;;;;;;;;6273731;28;20501;-53
2023/05/27 16:31:12;;;;;;;11.17;5.53;;;;;;;;;;6274213;28;20045;-55
2023/05/27 16:34:13;;;;;;;10.60;4.87;;;;;;;;;;6276716;28;20047;-60
2023/05/27 16:37:14;;;;;;;10.67;5.70;;;;;;;;;;6276544;28;20045;-56
2023/05/27 16:40:15;;;;;;;19.70;10.13;;;;;;;;;;6275887;28;20550;-56
2023/05/27 16:43:15;;;;;;;21.08;10.15;;;;;;;;;;6277783;28;20206;-50
2023/05/27 16:46:16;;;;;;;16.07;6.73;;;;;;;;;;6274683;28;20061;-52
2023/05/27 16:49:17;;;;;;;50.50;22.63;;;;;;;;;;6275577;28;20049;-58
2023/05/27 16:52:18;;;;;;;12.63;5.43;;;;;;;;;;6279947;28;20136;-59
2023/05/27 16:55:18;;;;;;;11.97;4.17;;;;;;;;;;6279597;28;20051;-60
2023/05/27 16:58:20;;;;;;;16.53;6.87;;;;;;;;;;6279038;28;20072;-59
2023/05/27 17:01:21;;;;;;;30.27;13.88;;;;;;;;;;6275846;28;20794;-56
2023/05/27 17:04:22;;;;;;;11.48;4.35;;;;;;;;;;6273764;28;20040;-59
2023/05/27 17:07:23;;;;;;;17.07;6.83;;;;;;;;;;6275795;28;20756;-54
2023/05/27 17:10:24;;;;;;;13.88;5.13;;;;;;;;;;6276922;28;20075;-58
2023/05/27 17:13:25;;;;;;;14.53;6.17;;;;;;;;;;6277627;28;20045;-54
2023/05/27 17:16:26;;;;;;;14.27;5.73;;;;;;;;;;6277079;28;20040;-56
2023/05/27 17:19:27;;;;;;;10.67;4.73;;;;;;;;;;6266215;28;20048;-56
2023/05/27 17:22:28;;;;;;;12.90;4.07;;;;;;;;;;6273869;28;20067;-59
2023/05/27 17:25:28;;;;;;;16.23;4.43;;;;;;;;;;6272880;28;20056;-58
2023/05/27 17:28:29;;;;;;;11.17;4.50;;;;;;;;;;6273386;28;20064;-52
2023/05/27 17:31:30;;;;;;;14.93;4.00;;;;;;;;;;6274935;28;20137;-51
2023/05/27 17:34:31;;;;;;;14.37;5.17;;;;;;;;;;6275379;28;20510;-55
2023/05/27 17:37:32;;;;;;;22.03;7.13;;;;;;;;;;6275043;28;20440;-57
2023/05/27 17:40:33;;;;;;;29.23;13.27;;;;;;;;;;6273836;28;20316;-56
2023/05/27 17:43:35;;;;;;;26.40;10.60;;;;;;;;;;6274858;28;20047;-53
2023/05/27 17:46:36;;;;;;;14.45;6.55;;;;;;;;;;6276114;28;20152;-58
2023/05/27 17:49:36;;;;;;;22.00;8.10;;;;;;;;;;6273078;28;20060;-53
2023/05/27 17:52:37;;;;;;;22.20;11.23;;;;;;;;;;6277282;28;20052;-58
2023/05/27 17:55:38;;;;;;;22.10;9.33;;;;;;;;;;6276400;28;20060;-50